Terminal Aerodrome Forecast
Issued by NWS Chicago, IL

Home | Current Version | Previous Version | Text Only | Print | Product List | Glossary On
Versions: 1 2 3 4 5 6 7 8 9 10 11 12 13 14 15 16 17 18 19 20 21 22 23 24 25
378
FTUS43 KLOT 142333
TAFRFD
TAF
KRFD 142333Z 1500/1524 13009KT 6SM -SN BR OVC018
      TEMPO 1500/1501 2SM -SN BR
     FM150600 14005KT 4SM BR OVC007
     FM151000 18003KT 2SM -SN BR OVC003
     FM151500 23005KT P6SM OVC008
     FM151800 24005KT P6SM OVC015=

USA.gov is the U.S. government's official web portal to all federal, state and local government web resources and services.